Time;durP1;ratioP1;P1;durP2;ratioP2;P2;SDS_P1;SDS_P2;PMS_P1;PMS_P2;Temp;Humidity;BMP_temperature;BMP_pressure;BME280_temperature;BME280_humidity;BME280_pressure;Samples;Min_cycle;Max_cycle;Signal;HPM_P1;HPM_P2
2024/03/04 00:00:16;;;;;;;216.27;98.43;;;6.90;95.70;;;;;;5093764;28;20167;-85
2024/03/04 00:02:45;;;;;;;204.00;92.47;;;6.90;95.70;;;;;;5093828;28;20190;-85
2024/03/04 00:05:10;;;;;;;212.47;90.87;;;6.90;95.70;;;;;;5075809;28;20656;-85
2024/03/04 00:07:36;;;;;;;201.03;94.90;;;6.90;95.70;;;;;;5075710;28;20174;-85
2024/03/04 00:10:07;;;;;;;232.33;96.33;;;6.90;95.70;;;;;;5075641;28;20654;-85
2024/03/04 00:12:32;;;;;;;259.53;95.67;;;6.90;95.70;;;;;;5093809;28;20266;-85
2024/03/04 00:14:58;;;;;;;288.93;95.83;;;6.90;95.70;;;;;;5093952;28;20216;-84
2024/03/04 00:17:24;;;;;;;274.43;94.67;;;6.80;95.70;;;;;;5093549;28;20194;-85
2024/03/04 00:19:50;;;;;;;320.13;95.83;;;6.90;95.70;;;;;;5075824;28;20312;-84
2024/03/04 00:22:15;;;;;;;276.97;95.53;;;6.90;95.70;;;;;;5093458;28;20261;-85
2024/03/04 00:24:41;;;;;;;292.50;96.97;;;6.90;95.70;;;;;;5075671;28;20170;-85
2024/03/04 00:27:06;;;;;;;292.73;99.20;;;6.90;95.70;;;;;;5094023;28;20179;-84
2024/03/04 00:29:32;;;;;;;338.10;102.13;;;6.90;95.80;;;;;;5075416;28;20265;-85
2024/03/04 00:31:58;;;;;;;310.27;97.90;;;6.90;95.80;;;;;;5093768;28;20201;-85
2024/03/04 00:34:23;;;;;;;294.53;94.03;;;6.90;95.80;;;;;;5093589;28;20175;-85
2024/03/04 00:36:49;;;;;;;308.00;94.50;;;6.90;95.80;;;;;;5093297;28;20194;-84
2024/03/04 00:39:14;;;;;;;300.03;95.57;;;6.90;95.80;;;;;;5093637;28;20174;-84
2024/03/04 00:41:40;;;;;;;265.93;96.60;;;6.90;95.80;;;;;;5093246;28;20190;-84
2024/03/04 00:44:05;;;;;;;269.17;100.53;;;6.90;95.90;;;;;;5093904;28;20182;-85
2024/03/04 00:46:31;;;;;;;252.70;96.20;;;6.90;95.90;;;;;;5095250;28;20179;-85
2024/03/04 00:48:57;;;;;;;233.67;97.60;;;7.00;95.90;;;;;;5079295;28;20601;-85
2024/03/04 00:51:23;;;;;;;218.53;92.70;;;7.00;95.90;;;;;;5097266;28;20185;-85
2024/03/04 00:53:49;;;;;;;240.87;97.87;;;7.00;95.90;;;;;;5079232;28;20303;-85
2024/03/04 00:56:15;;;;;;;220.30;92.03;;;7.00;95.90;;;;;;5097711;28;20191;-85
2024/03/04 00:58:41;;;;;;;231.07;96.37;;;7.00;95.90;;;;;;5079093;28;20175;-85
2024/03/04 01:01:07;;;;;;;217.47;93.13;;;7.00;95.90;;;;;;5079058;28;20650;-87
2024/03/04 01:03:33;;;;;;;205.67;92.27;;;7.00;95.90;;;;;;5097500;28;20529;-85
2024/03/04 01:05:59;;;;;;;205.83;92.10;;;7.10;95.90;;;;;;5079102;28;20179;-85
2024/03/04 01:08:28;;;;;;;216.40;95.53;;;7.10;95.90;;;;;;5078862;28;20175;-85
2024/03/04 01:10:54;;;;;;;212.40;94.20;;;7.10;95.90;;;;;;5096895;28;20179;-85
2024/03/04 01:13:23;;;;;;;200.37;91.93;;;7.10;95.90;;;;;;5097078;28;20191;-85
2024/03/04 01:15:49;;;;;;;198.07;90.17;;;7.10;95.90;;;;;;5097404;28;20202;-85
2024/03/04 01:18:16;;;;;;;207.57;94.50;;;7.10;95.90;;;;;;5078558;28;20210;-84
2024/03/04 01:20:44;;;;;;;205.07;92.53;;;7.00;95.90;;;;;;5096869;28;20595;-84
2024/03/04 01:23:10;;;;;;;192.67;91.27;;;7.10;95.90;;;;;;5096859;28;20225;-85
2024/03/04 01:25:35;;;;;;;188.30;89.47;;;7.10;95.90;;;;;;5097172;28;20195;-85
2024/03/04 01:28:01;;;;;;;198.80;90.43;;;7.10;95.90;;;;;;5096863;28;20189;-85
2024/03/04 01:30:27;;;;;;;200.80;92.83;;;7.10;95.90;;;;;;5096992;28;20171;-84
2024/03/04 01:32:53;;;;;;;194.97;92.43;;;7.10;95.90;;;;;;5078325;28;20567;-85
2024/03/04 01:35:18;;;;;;;189.17;92.10;;;7.10;95.90;;;;;;5096745;28;20167;-85
2024/03/04 01:37:45;;;;;;;196.40;90.03;;;7.10;95.90;;;;;;5078389;28;20220;-84
2024/03/04 01:40:13;;;;;;;187.57;91.07;;;7.10;95.90;;;;;;5096861;28;20250;-86
2024/03/04 01:42:42;;;;;;;195.77;92.57;;;7.10;95.80;;;;;;5097017;28;20356;-85
2024/03/04 01:45:23;;;;;;;182.47;89.20;;;7.10;95.80;;;;;;5078122;28;20592;-85
2024/03/04 01:47:50;;;;;;;182.33;89.03;;;7.10;95.80;;;;;;5096443;28;20160;-84
2024/03/04 01:50:16;;;;;;;186.60;89.77;;;7.10;95.80;;;;;;5078105;28;20179;-84
2024/03/04 01:52:41;;;;;;;171.57;86.90;;;7.10;95.80;;;;;;5096277;28;20206;-85
2024/03/04 01:55:08;;;;;;;179.50;89.40;;;7.20;95.80;;;;;;5096285;28;20182;-85
2024/03/04 01:57:35;;;;;;;172.90;85.90;;;7.10;95.70;;;;;;5095680;28;20194;-85
2024/03/04 02:00:01;;;;;;;169.43;86.97;;;7.10;95.70;;;;;;5096654;28;20233;-84
2024/03/04 02:02:29;;;;;;;170.27;87.40;;;7.10;95.70;;;;;;5096114;28;20273;-85
2024/03/04 02:04:55;;;;;;;175.03;86.87;;;7.10;95.70;;;;;;5078031;28;20175;-85
2024/03/04 02:07:21;;;;;;;171.73;85.23;;;7.10;95.70;;;;;;5078019;28;20721;-85
2024/03/04 02:09:48;;;;;;;169.57;87.60;;;7.10;95.70;;;;;;5096151;28;20181;-85
2024/03/04 02:12:14;;;;;;;171.53;86.57;;;7.10;95.60;;;;;;5096068;28;20697;-85
2024/03/04 02:14:41;;;;;;;159.33;87.13;;;7.10;95.60;;;;;;5095948;28;20258;-85
2024/03/04 02:17:07;;;;;;;163.30;88.57;;;7.20;95.60;;;;;;5077593;28;20285;-86
2024/03/04 02:19:33;;;;;;;158.73;84.10;;;7.20;95.60;;;;;;5096144;28;20182;-85
2024/03/04 02:22:02;;;;;;;155.63;83.30;;;7.20;95.60;;;;;;5096084;28;20195;-85
2024/03/04 02:24:27;;;;;;;150.80;82.93;;;7.20;95.60;;;;;;5095715;28;20223;-86
2024/03/04 02:26:53;;;;;;;146.03;84.00;;;7.20;95.50;;;;;;5095755;28;20174;-85
2024/03/04 02:29:19;;;;;;;144.87;83.50;;;7.20;95.50;;;;;;5077547;28;20650;-84
2024/03/04 02:31:45;;;;;;;147.93;82.10;;;7.20;95.50;;;;;;5095795;28;20186;-85
2024/03/04 02:34:13;;;;;;;144.00;79.93;;;7.20;95.50;;;;;;5095446;28;20175;-86
2024/03/04 02:36:40;;;;;;;149.50;87.10;;;7.20;95.40;;;;;;5095393;28;20223;-85
2024/03/04 02:39:10;;;;;;;148.40;86.50;;;7.20;95.40;;;;;;5095247;28;20167;-85
2024/03/04 02:41:38;;;;;;;143.20;84.63;;;7.20;95.30;;;;;;5095809;28;20220;-84
2024/03/04 02:44:04;;;;;;;144.10;85.23;;;7.20;95.30;;;;;;5077316;28;20198;-84
2024/03/04 02:46:30;;;;;;;147.60;87.93;;;7.20;95.30;;;;;;5095617;28;20198;-84
2024/03/04 02:48:56;;;;;;;146.70;84.70;;;7.20;95.30;;;;;;5095410;28;20651;-84
2024/03/04 02:51:21;;;;;;;143.70;86.03;;;7.20;95.20;;;;;;5076949;28;20174;-85
2024/03/04 02:53:47;;;;;;;141.40;87.67;;;7.20;95.20;;;;;;5077273;28;20174;-83
2024/03/04 02:56:13;;;;;;;150.97;84.17;;;7.20;95.20;;;;;;5095290;28;20190;-84
2024/03/04 02:58:38;;;;;;;144.77;85.07;;;7.20;95.10;;;;;;5095416;28;20182;-87
2024/03/04 03:01:04;;;;;;;146.43;83.67;;;7.20;95.10;;;;;;5095531;28;20665;-84
2024/03/04 03:03:29;;;;;;;145.37;84.60;;;7.20;95.10;;;;;;5076397;28;20251;-84
2024/03/04 03:05:55;;;;;;;140.47;86.40;;;7.30;95.10;;;;;;5076835;28;20185;-84
2024/03/04 03:08:20;;;;;;;149.27;84.77;;;7.20;95.00;;;;;;5094876;28;20202;-85
2024/03/04 03:10:46;;;;;;;139.33;84.67;;;7.20;95.00;;;;;;5093846;28;20233;-84
2024/03/04 03:13:12;;;;;;;136.80;83.67;;;7.20;94.90;;;;;;5095049;28;20194;-85
2024/03/04 03:15:38;;;;;;;143.87;87.20;;;7.20;94.90;;;;;;5095119;28;20170;-84
2024/03/04 03:18:06;;;;;;;142.33;86.37;;;7.20;94.90;;;;;;5094871;28;20198;-85
2024/03/04 03:20:32;;;;;;;146.70;85.23;;;7.10;94.90;;;;;;5076505;28;20186;-84
2024/03/04 03:22:57;;;;;;;150.83;87.20;;;7.10;94.80;;;;;;5094539;28;20588;-85
2024/03/04 03:25:23;;;;;;;145.17;85.83;;;7.10;94.80;;;;;;5094815;28;20260;-84
2024/03/04 03:27:48;;;;;;;145.67;86.57;;;7.10;94.80;;;;;;5076347;28;20254;-84
2024/03/04 03:30:14;;;;;;;137.07;83.10;;;7.10;94.80;;;;;;5094695;28;20183;-84
2024/03/04 03:32:40;;;;;;;143.37;82.13;;;7.00;94.80;;;;;;5094693;28;20281;-84
2024/03/04 03:35:06;;;;;;;141.50;85.17;;;7.00;94.80;;;;;;5076308;28;20179;-85
2024/03/04 03:37:34;;;;;;;142.30;85.17;;;7.00;94.70;;;;;;5076439;28;20198;-84
2024/03/04 03:39:59;;;;;;;139.43;84.47;;;7.00;94.70;;;;;;5094360;28;20181;-85
2024/03/04 03:42:25;;;;;;;141.83;84.67;;;6.90;94.60;;;;;;5076205;28;20194;-84
2024/03/04 03:44:50;;;;;;;136.23;82.40;;;7.00;94.70;;;;;;5076076;28;20167;-85
2024/03/04 03:47:16;;;;;;;139.50;84.80;;;6.90;94.60;;;;;;5094325;28;20232;-84
2024/03/04 03:49:41;;;;;;;133.07;83.23;;;6.90;94.60;;;;;;5094205;28;20167;-84
2024/03/04 03:52:07;;;;;;;135.07;83.57;;;6.90;94.60;;;;;;5094099;28;20206;-85
2024/03/04 03:54:32;;;;;;;139.37;84.97;;;6.90;94.60;;;;;;5076181;28;20216;-84
2024/03/04 03:56:58;;;;;;;135.60;82.20;;;6.90;94.60;;;;;;5094542;28;20226;-84
2024/03/04 03:59:23;;;;;;;132.23;81.23;;;6.90;94.60;;;;;;5076323;28;20179;-84
2024/03/04 04:01:49;;;;;;;149.13;84.40;;;6.80;94.60;;;;;;5093910;28;20202;-85
2024/03/04 04:04:14;;;;;;;132.70;75.63;;;6.80;94.60;;;;;;5094410;28;20178;-84
2024/03/04 04:06:40;;;;;;;130.27;75.50;;;6.80;94.60;;;;;;5076143;28;20178;-84
2024/03/04 04:09:06;;;;;;;134.67;80.20;;;6.80;94.60;;;;;;5094576;28;20257;-85
2024/03/04 04:11:32;;;;;;;134.27;77.70;;;6.90;94.60;;;;;;5093818;28;20191;-85
2024/03/04 04:13:57;;;;;;;135.63;78.23;;;6.80;94.60;;;;;;5075598;28;20698;-84
2024/03/04 04:16:27;;;;;;;140.00;80.13;;;6.80;94.60;;;;;;5093891;28;20202;-84
2024/03/04 04:18:53;;;;;;;131.70;79.23;;;6.80;94.70;;;;;;5075740;28;20175;-84
2024/03/04 04:21:20;;;;;;;138.13;82.10;;;6.80;94.70;;;;;;5096696;28;20181;-84
2024/03/04 04:23:46;;;;;;;143.07;82.60;;;6.80;94.70;;;;;;5100654;28;20170;-84
2024/03/04 04:26:11;;;;;;;134.20;79.47;;;6.90;94.70;;;;;;5100692;28;20180;-84
2024/03/04 04:28:37;;;;;;;133.37;79.30;;;6.90;94.70;;;;;;5100642;28;20217;-85
2024/03/04 04:31:02;;;;;;;132.50;79.23;;;6.90;94.70;;;;;;5100718;28;20193;-84
2024/03/04 04:33:29;;;;;;;136.03;81.87;;;6.90;94.70;;;;;;5100578;28;20713;-85
2024/03/04 04:35:54;;;;;;;131.50;79.63;;;6.90;94.70;;;;;;5100293;28;20163;-84
2024/03/04 04:38:20;;;;;;;130.03;78.97;;;7.00;94.70;;;;;;5100436;28;20185;-84
2024/03/04 04:40:46;;;;;;;126.20;78.67;;;6.90;94.60;;;;;;5100716;28;20182;-84
2024/03/04 04:43:11;;;;;;;125.03;75.50;;;6.90;94.60;;;;;;5100215;28;20194;-85
2024/03/04 04:45:37;;;;;;;122.47;77.20;;;6.80;94.50;;;;;;5100384;28;20182;-85
2024/03/04 04:48:03;;;;;;;121.57;74.53;;;6.80;94.50;;;;;;5101386;28;20170;-85
2024/03/04 04:50:28;;;;;;;123.17;74.40;;;6.70;94.50;;;;;;5100445;28;20657;-85
2024/03/04 04:52:54;;;;;;;116.83;73.67;;;6.70;94.40;;;;;;5100540;28;20208;-85
2024/03/04 04:55:20;;;;;;;120.53;73.20;;;6.70;94.40;;;;;;5082392;28;20228;-85
2024/03/04 04:57:45;;;;;;;115.73;73.03;;;6.60;94.30;;;;;;5100285;28;20195;-85
2024/03/04 05:00:12;;;;;;;109.20;71.93;;;6.60;94.30;;;;;;5100135;28;20171;-86
2024/03/04 05:02:38;;;;;;;103.37;70.00;;;6.50;94.30;;;;;;5100229;28;20213;-84
2024/03/04 05:05:04;;;;;;;113.10;72.17;;;6.50;94.20;;;;;;5100326;28;20170;-84
2024/03/04 05:07:29;;;;;;;112.57;74.30;;;6.40;94.00;;;;;;5082293;28;20186;-84
2024/03/04 05:09:55;;;;;;;116.53;75.03;;;6.30;94.00;;;;;;5100737;28;20170;-84
2024/03/04 05:12:21;;;;;;;117.63;73.33;;;6.30;94.00;;;;;;5100128;28;20202;-84
2024/03/04 05:14:46;;;;;;;121.37;75.83;;;6.30;94.00;;;;;;5082234;28;20265;-84
2024/03/04 05:17:12;;;;;;;121.90;81.77;;;6.30;94.00;;;;;;5100363;28;20700;-84
2024/03/04 05:19:38;;;;;;;119.93;80.60;;;6.20;94.00;;;;;;5100071;28;20216;-84
2024/03/04 05:22:04;;;;;;;127.37;80.03;;;6.30;94.10;;;;;;5081926;28;20187;-85
2024/03/04 05:24:29;;;;;;;123.53;79.97;;;6.20;94.00;;;;;;5082102;28;20170;-84
2024/03/04 05:26:55;;;;;;;126.93;79.33;;;6.30;94.10;;;;;;5100366;28;20174;-84
2024/03/04 05:29:20;;;;;;;118.80;80.73;;;6.20;94.10;;;;;;5082102;28;20175;-85
2024/03/04 05:31:54;;;;;;;115.37;81.00;;;6.20;94.10;;;;;;5081790;28;20190;-85
2024/03/04 05:34:20;;;;;;;124.57;82.87;;;6.20;94.10;;;;;;5095780;28;20177;-84
2024/03/04 05:36:45;;;;;;;114.20;77.63;;;6.20;94.10;;;;;;5096758;28;20300;-85
2024/03/04 05:39:11;;;;;;;119.37;79.47;;;6.20;94.10;;;;;;5096868;28;20249;-84
2024/03/04 05:41:39;;;;;;;120.37;79.13;;;6.20;94.10;;;;;;5096644;28;20305;-84
2024/03/04 05:44:05;;;;;;;123.53;80.20;;;6.10;94.00;;;;;;5096547;28;20167;-85
2024/03/04 05:46:31;;;;;;;112.63;79.87;;;6.10;94.10;;;;;;5096581;28;20261;-85
2024/03/04 05:48:56;;;;;;;122.10;80.33;;;6.20;94.10;;;;;;5078365;28;20183;-85
2024/03/04 05:51:22;;;;;;;120.80;78.93;;;6.20;94.10;;;;;;5096700;28;20182;-84
2024/03/04 05:53:48;;;;;;;126.93;82.53;;;6.20;94.10;;;;;;5078197;28;20167;-85
2024/03/04 05:56:14;;;;;;;121.60;82.43;;;6.20;94.20;;;;;;5096403;28;20205;-85
2024/03/04 05:58:43;;;;;;;126.57;85.20;;;6.10;94.10;;;;;;5096219;28;20171;-84
2024/03/04 06:01:08;;;;;;;124.27;79.47;;;6.30;94.20;;;;;;5096300;28;20634;-84
2024/03/04 06:03:34;;;;;;;120.20;78.97;;;6.30;94.20;;;;;;5078452;28;20175;-84
2024/03/04 06:06:00;;;;;;;120.57;81.73;;;6.20;94.20;;;;;;5078149;28;20291;-88
2024/03/04 06:08:25;;;;;;;121.73;81.77;;;6.20;94.20;;;;;;5096453;28;20170;-87
2024/03/04 06:10:51;;;;;;;116.73;80.37;;;6.20;94.20;;;;;;5078033;28;20261;-86
2024/03/04 06:13:17;;;;;;;124.77;81.13;;;6.30;94.20;;;;;;5095953;28;20186;-84
2024/03/04 06:15:42;;;;;;;119.57;80.00;;;6.30;94.20;;;;;;5096457;28;20266;-84
2024/03/04 06:18:08;;;;;;;121.13;81.33;;;6.30;94.20;;;;;;5095819;28;20190;-85
2024/03/04 06:20:33;;;;;;;121.60;81.57;;;6.30;94.20;;;;;;5096108;28;20192;-86
2024/03/04 06:22:59;;;;;;;127.50;78.90;;;6.30;94.20;;;;;;5096004;28;20705;-85
2024/03/04 06:25:25;;;;;;;117.23;74.97;;;6.20;94.20;;;;;;5077810;28;20196;-84
2024/03/04 06:27:51;;;;;;;119.00;75.63;;;6.20;94.30;;;;;;5095682;28;20622;-84
2024/03/04 06:30:16;;;;;;;127.40;78.83;;;6.30;94.30;;;;;;5095729;28;20249;-84
2024/03/04 06:32:42;;;;;;;125.63;77.87;;;6.30;94.30;;;;;;5095792;28;20194;-85
2024/03/04 06:35:07;;;;;;;124.90;78.17;;;6.30;94.30;;;;;;5095629;28;20178;-84
2024/03/04 06:37:33;;;;;;;118.53;77.00;;;6.30;94.40;;;;;;5077544;28;20240;-84
2024/03/04 06:39:59;;;;;;;122.60;76.33;;;6.40;94.40;;;;;;5095857;28;20175;-85
2024/03/04 06:42:24;;;;;;;122.17;77.93;;;6.40;94.50;;;;;;5095633;28;20261;-85
2024/03/04 06:44:50;;;;;;;129.27;74.70;;;6.40;94.50;;;;;;5096041;28;20228;-89
2024/03/04 06:47:16;;;;;;;130.53;82.13;;;6.40;94.60;;;;;;5096157;28;20175;-85
2024/03/04 06:49:41;;;;;;;133.27;79.57;;;6.50;94.60;;;;;;5077902;28;20175;-87
2024/03/04 06:52:08;;;;;;;115.50;74.13;;;6.50;94.60;;;;;;5077267;28;20255;-86
2024/03/04 06:54:35;;;;;;;124.87;77.53;;;6.50;94.70;;;;;;5077757;28;20202;-85
2024/03/04 06:57:00;;;;;;;131.27;80.40;;;6.60;94.70;;;;;;5077128;28;20289;-84
2024/03/04 06:59:26;;;;;;;121.23;78.17;;;6.70;94.70;;;;;;5095416;28;20173;-85
2024/03/04 07:01:52;;;;;;;122.83;75.93;;;6.70;94.70;;;;;;5095353;28;20277;-84
2024/03/04 07:04:18;;;;;;;121.40;76.13;;;6.70;94.70;;;;;;5077021;28;20188;-85
2024/03/04 07:06:44;;;;;;;118.80;78.17;;;6.80;94.70;;;;;;5095032;28;20201;-86
2024/03/04 07:09:10;;;;;;;120.23;75.70;;;6.80;94.70;;;;;;5077738;28;20175;-86
2024/03/04 07:11:35;;;;;;;118.57;75.80;;;6.80;94.60;;;;;;5095056;28;20225;-84
2024/03/04 07:14:02;;;;;;;116.37;71.33;;;6.80;94.60;;;;;;5076597;28;20562;-83
2024/03/04 07:16:27;;;;;;;119.13;73.17;;;6.70;94.50;;;;;;5094329;28;20247;-84
2024/03/04 07:18:53;;;;;;;115.83;76.27;;;6.80;94.50;;;;;;5094383;28;20163;-84
2024/03/04 07:21:20;;;;;;;112.00;74.23;;;6.80;94.50;;;;;;5094186;28;20177;-84
2024/03/04 07:23:46;;;;;;;114.67;71.50;;;6.80;94.40;;;;;;5076055;28;20646;-83
2024/03/04 07:26:12;;;;;;;107.87;73.13;;;6.80;94.40;;;;;;5094013;28;20178;-84
2024/03/04 07:28:40;;;;;;;107.73;72.97;;;6.80;94.30;;;;;;5094442;28;20162;-83
2024/03/04 07:31:07;;;;;;;115.27;74.97;;;6.80;94.30;;;;;;5094246;28;20254;-84
2024/03/04 07:33:33;;;;;;;115.03;73.47;;;6.80;94.20;;;;;;5094364;28;20645;-84
2024/03/04 07:35:58;;;;;;;108.20;72.63;;;6.80;94.20;;;;;;5094471;28;20198;-87
2024/03/04 07:38:24;;;;;;;111.77;74.57;;;6.80;94.20;;;;;;5094279;28;20260;-86
2024/03/04 07:40:49;;;;;;;119.10;74.63;;;6.80;94.20;;;;;;5075757;28;20650;-85
2024/03/04 07:43:15;;;;;;;110.37;70.40;;;6.90;94.20;;;;;;5094631;28;20692;-87
2024/03/04 07:45:40;;;;;;;116.73;74.87;;;6.90;94.20;;;;;;5075949;28;20208;-88
2024/03/04 07:48:06;;;;;;;116.70;76.10;;;6.90;94.20;;;;;;5076483;28;20642;-89
2024/03/04 07:50:32;;;;;;;121.20;77.57;;;6.90;94.30;;;;;;5075863;28;20552;-88
2024/03/04 07:52:58;;;;;;;122.67;79.10;;;6.90;94.20;;;;;;5075700;28;20221;-89
2024/03/04 07:55:23;;;;;;;120.13;74.97;;;7.00;94.30;;;;;;5075357;28;20655;-87
2024/03/04 07:57:50;;;;;;;117.80;74.13;;;6.90;94.30;;;;;;5075519;28;20243;-88
2024/03/04 08:00:15;;;;;;;132.93;78.73;;;7.00;94.30;;;;;;5075735;28;20166;-88
2024/03/04 08:02:42;;;;;;;132.07;84.30;;;7.00;94.30;;;;;;5093677;28;20182;-89
2024/03/04 08:05:08;;;;;;;135.93;79.07;;;7.10;94.40;;;;;;5093763;28;20162;-88
2024/03/04 08:07:33;;;;;;;137.13;82.97;;;7.20;94.40;;;;;;5093742;28;20531;-89
2024/03/04 08:09:59;;;;;;;137.10;83.77;;;7.10;94.40;;;;;;5093731;28;20179;-87
2024/03/04 08:12:24;;;;;;;124.47;81.00;;;7.20;94.40;;;;;;5075629;28;20204;-88
2024/03/04 08:14:50;;;;;;;122.67;79.30;;;7.20;94.40;;;;;;5075566;28;20175;-88
2024/03/04 08:17:17;;;;;;;139.37;86.90;;;7.20;94.40;;;;;;5093523;28;20212;-88
2024/03/04 08:19:44;;;;;;;140.27;83.20;;;7.10;94.40;;;;;;5093599;28;20214;-88
2024/03/04 08:22:09;;;;;;;134.70;81.43;;;7.10;94.50;;;;;;5093614;28;20194;-89
2024/03/04 08:24:35;;;;;;;136.07;82.20;;;7.20;94.50;;;;;;5093568;28;20174;-88
2024/03/04 08:27:00;;;;;;;149.50;85.80;;;7.20;94.50;;;;;;5093816;28;20181;-88
2024/03/04 08:29:26;;;;;;;133.83;81.77;;;7.20;94.60;;;;;;5093701;28;20171;-88
2024/03/04 08:31:52;;;;;;;143.50;85.83;;;7.20;94.60;;;;;;5093260;28;20190;-88
2024/03/04 08:34:19;;;;;;;133.37;79.33;;;7.30;94.70;;;;;;5093800;28;20300;-88
2024/03/04 08:36:44;;;;;;;139.27;81.37;;;7.20;94.60;;;;;;5093667;28;20563;-88
2024/03/04 08:39:10;;;;;;;148.37;86.17;;;7.20;94.60;;;;;;5076178;28;20261;-88
2024/03/04 08:41:45;;;;;;;133.67;84.87;;;7.20;94.60;;;;;;5075515;28;20190;-87
2024/03/04 08:44:12;;;;;;;144.03;82.60;;;7.20;94.60;;;;;;5075619;28;20544;-89
2024/03/04 08:46:37;;;;;;;130.33;77.30;;;7.20;94.60;;;;;;5093357;28;20170;-88
2024/03/04 08:49:04;;;;;;;149.53;87.03;;;7.20;94.60;;;;;;5075188;28;20270;-88
2024/03/04 08:51:30;;;;;;;134.17;80.33;;;7.30;94.70;;;;;;5075100;28;20586;-89
2024/03/04 08:53:56;;;;;;;136.23;82.20;;;7.30;94.70;;;;;;5093255;28;20170;-88
2024/03/04 08:56:21;;;;;;;131.90;77.97;;;7.40;94.70;;;;;;5075319;28;20174;-88
2024/03/04 08:58:47;;;;;;;132.27;80.10;;;7.40;94.70;;;;;;5075531;28;20643;-88
2024/03/04 09:01:13;;;;;;;134.20;79.57;;;7.40;94.80;;;;;;5074935;28;20262;-88
2024/03/04 09:03:40;;;;;;;133.47;78.63;;;7.40;94.80;;;;;;5093250;28;20219;-90
2024/03/04 09:06:13;;;;;;;139.37;78.37;;;7.50;94.80;;;;;;5075131;28;20175;-89
2024/03/04 09:08:39;;;;;;;135.47;79.33;;;7.50;94.80;;;;;;5077567;28;20251;-89
2024/03/04 09:11:04;;;;;;;127.33;76.77;;;7.60;94.80;;;;;;5079103;28;20329;-89
2024/03/04 09:13:30;;;;;;;138.30;84.77;;;7.50;94.70;;;;;;5078640;28;20195;-88
2024/03/04 09:15:55;;;;;;;134.83;79.17;;;7.50;94.70;;;;;;5078854;28;20177;-88
2024/03/04 09:18:21;;;;;;;125.83;79.33;;;7.50;94.70;;;;;;5079151;28;20225;-88
2024/03/04 09:20:46;;;;;;;148.97;82.37;;;7.40;94.60;;;;;;5078844;28;20174;-88
2024/03/04 09:23:12;;;;;;;125.40;77.37;;;7.40;94.60;;;;;;5078773;28;20700;-87
2024/03/04 09:25:39;;;;;;;138.53;80.67;;;7.40;94.70;;;;;;5096875;28;20260;-87
2024/03/04 09:28:04;;;;;;;140.83;79.67;;;7.50;94.80;;;;;;5096711;28;20258;-88
2024/03/04 09:30:30;;;;;;;142.57;80.27;;;7.40;94.80;;;;;;5078668;28;20218;-88
2024/03/04 09:32:55;;;;;;;155.50;85.83;;;7.50;94.80;;;;;;5078824;28;20201;-88
2024/03/04 09:35:21;;;;;;;134.33;80.83;;;7.50;94.80;;;;;;5097527;28;20171;-90
2024/03/04 09:37:47;;;;;;;139.93;80.03;;;7.60;94.90;;;;;;5096476;28;20648;-90
2024/03/04 09:40:12;;;;;;;135.30;82.40;;;7.60;94.90;;;;;;5078188;28;20262;-91
2024/03/04 09:42:44;;;;;;;142.70;81.87;;;7.70;94.90;;;;;;5096543;28;20261;-90
2024/03/04 09:45:10;;;;;;;137.70;77.80;;;7.70;94.80;;;;;;5096107;28;20565;-91
2024/03/04 09:47:37;;;;;;;133.87;77.93;;;7.60;94.80;;;;;;5078108;28;20182;-89
2024/03/04 09:50:04;;;;;;;132.30;76.77;;;7.70;94.90;;;;;;5077797;28;20178;-90
2024/03/04 09:52:30;;;;;;;132.93;76.03;;;7.70;94.80;;;;;;5095850;28;20225;-90
2024/03/04 09:54:57;;;;;;;133.70;76.10;;;7.70;94.80;;;;;;5095887;28;20674;-89
2024/03/04 09:57:23;;;;;;;144.73;80.10;;;7.70;94.80;;;;;;5077789;28;20210;-89
2024/03/04 09:59:49;;;;;;;147.37;83.40;;;7.60;94.70;;;;;;5077831;28;20176;-88
2024/03/04 10:02:15;;;;;;;131.00;78.50;;;7.80;94.80;;;;;;5077864;28;20191;-89
2024/03/04 10:04:42;;;;;;;134.70;76.43;;;7.90;94.90;;;;;;5077644;28;20181;-88
2024/03/04 10:07:08;;;;;;;125.33;77.50;;;8.00;94.80;;;;;;5077739;28;20651;-89
2024/03/04 10:09:35;;;;;;;136.07;78.47;;;8.00;94.70;;;;;;5077544;28;20171;-89
2024/03/04 10:12:03;;;;;;;116.17;73.37;;;7.90;94.60;;;;;;5078714;28;20251;-89
2024/03/04 10:14:32;;;;;;;130.40;75.83;;;8.00;94.50;;;;;;5077392;28;20239;-89
2024/03/04 10:16:58;;;;;;;123.97;77.87;;;8.00;94.50;;;;;;5077266;28;20202;-90
2024/03/04 10:19:23;;;;;;;134.80;79.20;;;8.10;94.50;;;;;;5094885;28;20207;-88
2024/03/04 10:21:49;;;;;;;139.20;79.90;;;8.20;94.40;;;;;;5077281;28;20198;-90
2024/03/04 10:24:14;;;;;;;128.13;78.43;;;8.00;94.30;;;;;;5095526;28;20163;-89
2024/03/04 10:26:44;;;;;;;129.47;76.17;;;8.10;94.40;;;;;;5095438;28;20186;-89
2024/03/04 10:29:12;;;;;;;128.37;74.17;;;8.10;94.30;;;;;;5095345;28;20174;-90
2024/03/04 10:31:51;;;;;;;125.73;76.30;;;8.20;94.30;;;;;;5095134;28;20571;-89
2024/03/04 10:34:18;;;;;;;130.93;75.00;;;8.30;94.30;;;;;;5095448;28;20682;-89
2024/03/04 10:36:51;;;;;;;119.00;73.63;;;8.30;94.20;;;;;;5095261;28;20198;-89
2024/03/04 10:39:17;;;;;;;124.17;72.10;;;8.40;94.20;;;;;;5077716;28;20315;-89
2024/03/04 10:41:46;;;;;;;119.77;73.43;;;8.30;94.00;;;;;;5095301;28;20218;-88
2024/03/04 10:44:32;;;;;;;108.13;72.50;;;8.30;93.80;;;;;;5077345;28;20228;-89
2024/03/04 10:47:00;;;;;;;119.10;73.93;;;8.40;93.80;;;;;;5077085;28;20186;-88
2024/03/04 10:49:27;;;;;;;124.87;75.23;;;8.40;93.70;;;;;;5076996;28;20171;-87
2024/03/04 10:51:52;;;;;;;115.87;74.83;;;8.50;93.70;;;;;;5076770;28;20210;-88
2024/03/04 10:54:24;;;;;;;123.07;75.23;;;8.50;93.50;;;;;;5094787;28;20227;-89
2024/03/04 10:57:04;;;;;;;121.20;73.40;;;8.50;93.40;;;;;;5076653;28;20202;-89
2024/03/04 10:59:45;;;;;;;115.33;72.17;;;8.50;93.40;;;;;;5076679;28;20530;-88
2024/03/04 11:02:19;;;;;;;116.13;71.50;;;8.40;93.30;;;;;;5094790;28;20193;-89
2024/03/04 11:04:46;;;;;;;114.77;70.10;;;8.50;93.50;;;;;;5094617;28;20526;-87
2024/03/04 11:07:13;;;;;;;108.20;72.40;;;8.50;93.40;;;;;;5094516;28;20258;-89
2024/03/04 11:09:47;;;;;;;112.07;73.47;;;8.50;93.30;;;;;;5076381;28;20178;-88
2024/03/04 11:12:16;;;;;;;118.17;73.70;;;8.50;93.20;;;;;;5076436;28;20199;-88
2024/03/04 11:14:51;;;;;;;120.13;77.50;;;8.50;93.20;;;;;;5076354;28;20220;-88
2024/03/04 11:17:31;;;;;;;121.23;75.43;;;8.60;93.20;;;;;;5076158;28;20247;-88
2024/03/04 11:19:58;;;;;;;114.13;74.63;;;8.60;93.10;;;;;;5094440;28;20162;-89
2024/03/04 11:22:25;;;;;;;117.30;72.37;;;8.60;93.10;;;;;;5076272;28;20195;-88
2024/03/04 11:24:52;;;;;;;112.37;73.17;;;8.70;93.00;;;;;;5094507;28;20182;-89
2024/03/04 11:27:19;;;;;;;116.47;74.87;;;8.80;92.90;;;;;;5076143;28;20171;-88
2024/03/04 11:29:47;;;;;;;113.53;75.13;;;8.80;92.90;;;;;;5076332;28;20677;-88
2024/03/04 11:32:13;;;;;;;113.83;74.60;;;8.90;92.80;;;;;;5075453;28;20194;-88
2024/03/04 11:34:59;;;;;;;115.43;76.73;;;9.00;92.70;;;;;;5076027;28;20197;-88
2024/03/04 11:37:28;;;;;;;105.70;72.53;;;9.10;92.50;;;;;;5094311;28;20202;-88
2024/03/04 11:39:54;;;;;;;109.90;70.97;;;9.10;92.30;;;;;;5094092;28;20166;-88
2024/03/04 11:42:36;;;;;;;107.33;76.17;;;9.20;92.20;;;;;;5075840;28;20201;-88
2024/03/04 11:45:06;;;;;;;105.30;69.77;;;9.40;92.20;;;;;;5094186;28;20194;-88
2024/03/04 11:47:31;;;;;;;104.53;72.57;;;9.50;91.90;;;;;;5075812;28;20174;-87
2024/03/04 11:49:57;;;;;;;105.10;73.97;;;9.50;91.50;;;;;;5075867;28;20220;-89
2024/03/04 11:52:25;;;;;;;102.33;74.10;;;9.70;91.40;;;;;;5093750;28;20210;-88
2024/03/04 11:54:51;;;;;;;97.07;68.37;;;10.00;91.20;;;;;;5093645;28;20170;-89
2024/03/04 11:57:17;;;;;;;97.33;69.30;;;10.00;90.60;;;;;;5093578;28;20236;-89
2024/03/04 12:00:13;;;;;;;100.03;75.43;;;10.00;90.10;;;;;;5093981;28;20186;-88
2024/03/04 12:02:39;;;;;;;92.83;71.77;;;10.20;90.00;;;;;;5076469;28;20197;-88
2024/03/04 12:05:05;;;;;;;102.43;76.30;;;10.40;89.90;;;;;;5075673;28;20170;-88
2024/03/04 12:07:32;;;;;;;103.83;76.10;;;10.50;89.20;;;;;;5093906;28;20216;-88
2024/03/04 12:09:59;;;;;;;97.80;75.50;;;10.70;89.10;;;;;;5093622;28;20249;-89
2024/03/04 12:12:25;;;;;;;95.97;74.10;;;10.90;88.80;;;;;;5075339;28;20194;-88
2024/03/04 12:14:51;;;;;;;98.77;74.27;;;11.00;87.90;;;;;;5075395;28;20189;-88
2024/03/04 12:17:17;;;;;;;95.73;73.27;;;11.20;87.80;;;;;;5093498;28;20225;-89
2024/03/04 12:19:56;;;;;;;90.10;71.70;;;11.30;87.50;;;;;;5075494;28;20181;-88
2024/03/04 12:22:27;;;;;;;91.63;73.70;;;11.50;86.90;;;;;;5093272;28;20191;-88